Time;durP1;ratioP1;P1;durP2;ratioP2;P2;SDS_P1;SDS_P2;PMS_P1;PMS_P2;Temp;Humidity;BMP_temperature;BMP_pressure;BME280_temperature;BME280_humidity;BME280_pressure;Samples;Min_cycle;Max_cycle;Signal;HPM_P1;HPM_P2
2023/02/17 00:01:28;;;;;;;107.10;60.87;;;;;;;;;;4388146;32;318730;-94
2023/02/17 00:03:56;;;;;;;103.77;60.57;;;;;;;;;;4382579;32;319197;-95
2023/02/17 00:06:24;;;;;;;123.63;66.67;;;;;;;;;;4392282;32;356399;-93
2023/02/17 00:08:53;;;;;;;118.73;65.90;;;;;;;;;;4393762;32;319477;-93
2023/02/17 00:11:21;;;;;;;138.93;71.53;;;;;;;;;;4381434;32;419740;-94
2023/02/17 00:13:48;;;;;;;203.07;91.47;;;;;;;;;;4393233;32;318703;-94
2023/02/17 00:16:19;;;;;;;140.70;69.57;;;;;;;;;;4384225;32;319028;-94
2023/02/17 00:18:46;;;;;;;169.73;85.10;;;;;;;;;;4392622;32;325720;-94
2023/02/17 00:21:16;;;;;;;189.97;93.53;;;;;;;;;;4383510;32;318388;-94
2023/02/17 00:23:43;;;;;;;193.07;100.17;;;;;;;;;;4392950;32;317938;-94
2023/02/17 00:26:12;;;;;;;165.97;89.10;;;;;;;;;;4384425;32;320614;-94
2023/02/17 00:28:39;;;;;;;168.00;89.77;;;;;;;;;;4391827;32;357341;-94
2023/02/17 00:31:07;;;;;;;138.87;78.00;;;;;;;;;;4383410;32;318831;-94
2023/02/17 00:33:34;;;;;;;128.67;73.27;;;;;;;;;;4393412;32;319139;-94
2023/02/17 00:36:03;;;;;;;132.53;69.30;;;;;;;;;;4370758;32;318884;-93
2023/02/17 00:38:30;;;;;;;124.73;69.30;;;;;;;;;;4393684;32;318556;-94
2023/02/17 00:40:57;;;;;;;132.43;71.07;;;;;;;;;;4383663;32;318838;-94
2023/02/17 00:43:26;;;;;;;140.57;75.73;;;;;;;;;;4393912;32;318720;-93
2023/02/17 00:45:53;;;;;;;133.63;69.70;;;;;;;;;;4391776;32;318682;-93
2023/02/17 00:48:20;;;;;;;119.73;66.40;;;;;;;;;;4378748;32;417774;-94
2023/02/17 00:50:47;;;;;;;113.87;60.87;;;;;;;;;;4393743;32;318804;-93
2023/02/17 00:53:14;;;;;;;111.93;58.83;;;;;;;;;;4382273;32;336858;-93
2023/02/17 00:55:40;;;;;;;116.47;63.83;;;;;;;;;;4393301;32;318639;-94
2023/02/17 00:58:07;;;;;;;127.33;66.57;;;;;;;;;;4383847;32;318587;-93
2023/02/17 01:00:36;;;;;;;123.23;65.50;;;;;;;;;;4394009;32;318504;-94
2023/02/17 01:03:03;;;;;;;123.20;64.13;;;;;;;;;;4381752;32;344716;-94
2023/02/17 01:05:30;;;;;;;122.53;61.03;;;;;;;;;;4393069;32;320231;-93
2023/02/17 01:07:56;;;;;;;111.50;59.33;;;;;;;;;;4383927;32;338498;-94
2023/02/17 01:10:23;;;;;;;110.63;58.77;;;;;;;;;;4394691;32;318598;-94
2023/02/17 01:12:50;;;;;;;110.27;57.50;;;;;;;;;;4394423;32;318490;-94
2023/02/17 01:15:18;;;;;;;93.70;53.43;;;;;;;;;;4383804;32;318417;-94
2023/02/17 01:17:46;;;;;;;89.20;49.73;;;;;;;;;;4394742;32;317545;-94
2023/02/17 01:20:13;;;;;;;96.90;50.87;;;;;;;;;;4382661;32;349706;-93
2023/02/17 01:22:40;;;;;;;107.80;60.73;;;;;;;;;;4392069;32;318376;-93
2023/02/17 01:25:07;;;;;;;96.27;61.07;;;;;;;;;;4383014;32;318595;-94
2023/02/17 01:27:35;;;;;;;89.73;52.80;;;;;;;;;;4394198;32;317719;-93
2023/02/17 01:30:02;;;;;;;102.33;55.40;;;;;;;;;;4382695;32;317544;-93
2023/02/17 01:32:28;;;;;;;107.07;60.00;;;;;;;;;;4393467;32;319555;-92
2023/02/17 01:34:57;;;;;;;121.17;62.00;;;;;;;;;;4383887;32;318598;-93
2023/02/17 01:37:24;;;;;;;112.93;58.07;;;;;;;;;;4392618;32;318572;-93
2023/02/17 01:39:51;;;;;;;102.57;54.37;;;;;;;;;;4392853;32;318341;-92
2023/02/17 01:42:19;;;;;;;105.37;56.80;;;;;;;;;;4386015;32;354327;-93
2023/02/17 01:45:24;;;;;;;88.80;46.60;;;;;;;;;;4401708;32;319029;-93
2023/02/17 01:47:56;;;;;;;77.47;45.50;;;;;;;;;;4398838;32;414764;-94
2023/02/17 01:50:27;;;;;;;74.37;43.17;;;;;;;;;;4381878;32;414385;-92
2023/02/17 01:52:55;;;;;;;74.80;44.60;;;;;;;;;;4383647;32;317316;-93
2023/02/17 01:55:26;;;;;;;76.37;45.37;;;;;;;;;;4398640;32;317574;-92
2023/02/17 01:57:56;;;;;;;102.00;55.40;;;;;;;;;;4397772;32;318564;-93
2023/02/17 02:00:26;;;;;;;117.13;62.27;;;;;;;;;;4370319;32;390419;-93
2023/02/17 02:02:53;;;;;;;129.73;69.17;;;;;;;;;;4391317;32;319534;-93
2023/02/17 02:05:21;;;;;;;135.57;68.30;;;;;;;;;;4363444;32;418179;-93
2023/02/17 02:07:50;;;;;;;141.87;69.87;;;;;;;;;;4376511;32;318516;-93
2023/02/17 02:10:19;;;;;;;114.13;63.03;;;;;;;;;;4367029;32;318640;-93
2023/02/17 02:12:47;;;;;;;127.37;63.90;;;;;;;;;;4376887;32;318590;-93
2023/02/17 02:15:17;;;;;;;110.63;60.40;;;;;;;;;;4367766;32;318395;-93
2023/02/17 02:17:59;;;;;;;108.17;59.57;;;;;;;;;;4376164;32;318624;-93
2023/02/17 02:20:44;;;;;;;112.53;59.30;;;;;;;;;;4380302;32;418734;-93
2023/02/17 02:23:46;;;;;;;104.93;56.87;;;;;;;;;;4380943;32;318587;-93
2023/02/17 02:26:48;;;;;;;101.43;55.30;;;;;;;;;;4364701;32;344036;-93
2023/02/17 02:29:56;;;;;;;106.17;58.77;;;;;;;;;;4367343;32;319326;-92
2023/02/17 02:32:43;;;;;;;177.10;81.87;;;;;;;;;;4377834;32;419533;-92
2023/02/17 02:35:15;;;;;;;156.50;74.00;;;;;;;;;;4381971;32;318564;-93
2023/02/17 02:37:48;;;;;;;151.73;83.90;;;;;;;;;;4392322;32;318587;-93
2023/02/17 02:40:17;;;;;;;192.97;98.43;;;;;;;;;;4369006;32;319312;-92
2023/02/17 02:42:46;;;;;;;235.50;120.77;;;;;;;;;;4390201;32;319463;-93
2023/02/17 02:45:13;;;;;;;243.27;125.43;;;;;;;;;;4381529;32;320614;-93
2023/02/17 02:47:47;;;;;;;257.83;131.70;;;;;;;;;;4396527;32;319471;-94
2023/02/17 02:50:17;;;;;;;252.87;129.33;;;;;;;;;;4395717;32;319760;-94
2023/02/17 02:52:56;;;;;;;260.60;137.83;;;;;;;;;;4406423;32;322745;-93
2023/02/17 02:55:34;;;;;;;255.43;133.30;;;;;;;;;;4392463;32;420992;-93
2023/02/17 02:58:07;;;;;;;228.80;122.43;;;;;;;;;;4396001;32;319818;-93
2023/02/17 03:00:42;;;;;;;227.40;120.57;;;;;;;;;;4390814;32;320127;-93
2023/02/17 03:03:15;;;;;;;233.43;122.97;;;;;;;;;;4395686;32;319832;-93
2023/02/17 03:05:49;;;;;;;238.57;125.37;;;;;;;;;;4398572;32;334276;-93
2023/02/17 03:08:20;;;;;;;240.73;127.43;;;;;;;;;;4389245;32;328537;-93
2023/02/17 03:10:49;;;;;;;236.20;126.67;;;;;;;;;;4399500;32;320513;-92
2023/02/17 03:13:16;;;;;;;250.67;130.97;;;;;;;;;;4392521;32;319651;-93
2023/02/17 03:15:44;;;;;;;251.47;128.57;;;;;;;;;;4402303;32;319627;-92
2023/02/17 03:18:13;;;;;;;253.53;128.83;;;;;;;;;;4388890;32;320330;-93
2023/02/17 03:20:45;;;;;;;242.83;131.13;;;;;;;;;;4397903;32;319741;-92
2023/02/17 03:23:12;;;;;;;255.10;131.33;;;;;;;;;;4389388;32;320334;-92
2023/02/17 03:25:39;;;;;;;239.13;128.70;;;;;;;;;;4399860;32;320384;-92
2023/02/17 03:28:06;;;;;;;203.93;107.97;;;;;;;;;;4391526;32;319851;-92
2023/02/17 03:30:33;;;;;;;173.83;94.93;;;;;;;;;;4399266;32;340791;-93
2023/02/17 03:33:00;;;;;;;177.27;91.73;;;;;;;;;;4387441;32;335967;-92
2023/02/17 03:35:31;;;;;;;170.60;94.13;;;;;;;;;;4399500;32;318910;-92
2023/02/17 03:37:58;;;;;;;164.40;91.27;;;;;;;;;;4388420;32;319442;-92
2023/02/17 03:40:25;;;;;;;170.40;91.30;;;;;;;;;;4405325;32;335813;-92
2023/02/17 03:42:52;;;;;;;182.20;98.73;;;;;;;;;;4402099;32;319201;-91
2023/02/17 03:45:19;;;;;;;169.97;94.47;;;;;;;;;;4393920;32;319388;-90
2023/02/17 03:47:45;;;;;;;184.40;98.53;;;;;;;;;;4406277;32;318455;-91
2023/02/17 03:50:12;;;;;;;174.70;94.17;;;;;;;;;;4401697;32;318246;-92
2023/02/17 03:52:40;;;;;;;149.50;89.43;;;;;;;;;;4406325;32;319569;-93
2023/02/17 03:55:08;;;;;;;155.67;87.37;;;;;;;;;;4390011;32;319059;-92
2023/02/17 03:57:34;;;;;;;170.47;92.37;;;;;;;;;;4399594;32;319307;-92
2023/02/17 04:00:02;;;;;;;193.47;103.33;;;;;;;;;;4381235;32;318674;-92
2023/02/17 04:02:29;;;;;;;171.17;93.03;;;;;;;;;;4388398;32;319823;-94
2023/02/17 04:04:56;;;;;;;168.30;92.43;;;;;;;;;;4377658;32;340284;-93
2023/02/17 04:07:23;;;;;;;188.40;102.60;;;;;;;;;;4390479;32;319090;-92
2023/02/17 04:09:51;;;;;;;162.10;91.00;;;;;;;;;;4394144;32;319531;-93
2023/02/17 04:12:18;;;;;;;177.13;98.30;;;;;;;;;;4392782;32;318557;-93
2023/02/17 04:14:45;;;;;;;177.43;95.87;;;;;;;;;;4389894;32;318773;-92
2023/02/17 04:17:12;;;;;;;170.00;88.60;;;;;;;;;;4378630;32;318672;-92
2023/02/17 04:19:39;;;;;;;170.60;84.83;;;;;;;;;;4388265;32;344602;-92
2023/02/17 04:22:08;;;;;;;149.80;83.73;;;;;;;;;;4380752;32;318483;-91
2023/02/17 04:24:36;;;;;;;151.87;82.80;;;;;;;;;;4390742;32;318676;-95
2023/02/17 04:27:07;;;;;;;162.47;85.97;;;;;;;;;;4379743;32;318775;-92
2023/02/17 04:29:34;;;;;;;158.53;86.67;;;;;;;;;;4390578;32;318428;-92
2023/02/17 04:32:01;;;;;;;164.33;88.27;;;;;;;;;;4380136;32;318663;-92
2023/02/17 04:34:28;;;;;;;167.17;89.63;;;;;;;;;;4395289;32;318567;-91
2023/02/17 04:36:55;;;;;;;121.73;72.00;;;;;;;;;;4389196;32;318547;-92
2023/02/17 04:39:22;;;;;;;115.03;67.77;;;;;;;;;;4400318;32;318490;-92
2023/02/17 04:41:49;;;;;;;122.37;70.33;;;;;;;;;;4397164;32;318406;-94
2023/02/17 04:44:17;;;;;;;118.73;69.60;;;;;;;;;;4382385;32;319583;-92
2023/02/17 04:46:44;;;;;;;141.13;75.67;;;;;;;;;;4390864;32;319333;-93
2023/02/17 04:49:11;;;;;;;135.80;71.87;;;;;;;;;;4400168;32;318672;-92
2023/02/17 04:51:38;;;;;;;128.40;69.37;;;;;;;;;;4419016;32;319084;-92
2023/02/17 04:54:05;;;;;;;115.97;68.70;;;;;;;;;;4406843;32;318468;-92
2023/02/17 04:56:32;;;;;;;127.50;71.20;;;;;;;;;;4408959;32;319420;-91
2023/02/17 04:58:58;;;;;;;115.23;67.67;;;;;;;;;;4398156;32;318441;-92
2023/02/17 05:01:26;;;;;;;114.93;65.37;;;;;;;;;;4408063;32;319085;-92
2023/02/17 05:03:53;;;;;;;116.83;68.17;;;;;;;;;;4407528;32;318993;-91
2023/02/17 05:06:20;;;;;;;130.07;70.20;;;;;;;;;;4393720;32;418549;-91
2023/02/17 05:08:49;;;;;;;133.63;71.93;;;;;;;;;;4406869;32;319635;-92
2023/02/17 05:11:16;;;;;;;144.23;72.50;;;;;;;;;;4395347;32;318902;-92
2023/02/17 05:13:43;;;;;;;132.33;73.30;;;;;;;;;;4405132;32;355283;-93
2023/02/17 05:16:10;;;;;;;142.47;73.70;;;;;;;;;;4398158;32;319264;-92
2023/02/17 05:18:38;;;;;;;151.57;84.13;;;;;;;;;;4407933;32;318604;-92
2023/02/17 05:21:05;;;;;;;147.97;83.20;;;;;;;;;;4396555;32;318550;-91
2023/02/17 05:23:32;;;;;;;158.23;85.13;;;;;;;;;;4406698;32;319623;-92
2023/02/17 05:25:59;;;;;;;156.00;86.57;;;;;;;;;;4396164;32;319066;-92
2023/02/17 05:28:26;;;;;;;180.10;98.43;;;;;;;;;;4407581;32;329340;-92
2023/02/17 05:30:52;;;;;;;206.03;110.10;;;;;;;;;;4407486;32;318516;-92
2023/02/17 05:33:19;;;;;;;210.00;115.73;;;;;;;;;;4394460;32;419601;-92
2023/02/17 05:35:48;;;;;;;197.90;109.63;;;;;;;;;;4406424;32;319696;-92
2023/02/17 05:38:22;;;;;;;197.40;105.03;;;;;;;;;;4394992;32;319444;-92
2023/02/17 05:40:50;;;;;;;183.83;100.20;;;;;;;;;;4407799;32;319571;-91
2023/02/17 05:43:17;;;;;;;206.20;105.83;;;;;;;;;;4397608;32;320485;-92
2023/02/17 05:45:44;;;;;;;234.27;127.77;;;;;;;;;;4407778;32;320113;-92
2023/02/17 05:48:11;;;;;;;211.07;119.20;;;;;;;;;;4397131;32;319741;-92
2023/02/17 05:50:37;;;;;;;225.17;126.77;;;;;;;;;;4410098;32;319474;-92
2023/02/17 05:53:06;;;;;;;232.03;131.33;;;;;;;;;;4384615;32;319738;-92
2023/02/17 05:55:33;;;;;;;219.80;126.93;;;;;;;;;;4407006;32;319813;-91
2023/02/17 05:58:00;;;;;;;216.63;121.23;;;;;;;;;;4389800;32;319665;-92
2023/02/17 06:00:27;;;;;;;262.73;141.37;;;;;;;;;;4399903;32;320253;-92
2023/02/17 06:02:55;;;;;;;300.33;161.17;;;;;;;;;;4399100;32;319745;-91
2023/02/17 06:05:22;;;;;;;257.73;146.20;;;;;;;;;;4404164;32;319843;-91
2023/02/17 06:07:49;;;;;;;260.07;137.70;;;;;;;;;;4403660;32;320744;-92
2023/02/17 06:10:18;;;;;;;227.97;129.20;;;;;;;;;;4389149;32;319778;-91
2023/02/17 06:12:45;;;;;;;220.60;124.50;;;;;;;;;;4395391;32;319794;-92
2023/02/17 06:15:12;;;;;;;239.00;133.40;;;;;;;;;;4394391;32;320182;-91
2023/02/17 06:17:39;;;;;;;251.47;136.23;;;;;;;;;;4390302;32;319775;-91
2023/02/17 06:20:08;;;;;;;258.30;138.23;;;;;;;;;;4383275;32;320291;-91
2023/02/17 06:22:35;;;;;;;247.20;136.23;;;;;;;;;;4391252;32;320217;-92
2023/02/17 06:25:02;;;;;;;233.43;125.93;;;;;;;;;;4382819;32;320139;-91
2023/02/17 06:27:30;;;;;;;236.53;125.43;;;;;;;;;;4394400;32;319248;-91
2023/02/17 06:29:57;;;;;;;216.37;129.07;;;;;;;;;;4381451;32;343607;-91
2023/02/17 06:32:23;;;;;;;230.23;125.80;;;;;;;;;;4394102;32;319613;-92
2023/02/17 06:34:50;;;;;;;209.37;118.90;;;;;;;;;;4394988;32;320006;-95
2023/02/17 06:37:18;;;;;;;201.60;110.83;;;;;;;;;;4382842;32;320312;-91
2023/02/17 06:39:45;;;;;;;191.20;110.13;;;;;;;;;;4397325;32;319712;-91
2023/02/17 06:42:12;;;;;;;197.27;108.00;;;;;;;;;;4387448;32;319733;-90
2023/02/17 06:44:40;;;;;;;192.77;111.80;;;;;;;;;;4397003;32;319456;-89
2023/02/17 06:47:07;;;;;;;195.57;113.10;;;;;;;;;;4388172;32;332751;-91
2023/02/17 06:49:34;;;;;;;176.33;104.37;;;;;;;;;;4412440;32;319504;-92
2023/02/17 06:52:05;;;;;;;178.97;101.40;;;;;;;;;;4404442;32;319211;-90
2023/02/17 06:54:32;;;;;;;179.37;100.83;;;;;;;;;;4416518;32;320244;-89
2023/02/17 06:57:01;;;;;;;180.53;102.47;;;;;;;;;;4404478;32;319670;-90
2023/02/17 06:59:28;;;;;;;188.57;106.33;;;;;;;;;;4400377;32;320218;-91
2023/02/17 07:01:58;;;;;;;179.93;107.40;;;;;;;;;;4403637;32;319345;-91
2023/02/17 07:04:26;;;;;;;206.13;115.97;;;;;;;;;;4408398;32;320471;-91
2023/02/17 07:06:52;;;;;;;218.93;119.00;;;;;;;;;;4410300;32;319926;-89
2023/02/17 07:09:20;;;;;;;190.63;113.60;;;;;;;;;;4399113;32;415944;-89
2023/02/17 07:11:51;;;;;;;185.43;100.93;;;;;;;;;;4411597;32;320190;-89
2023/02/17 07:14:19;;;;;;;148.53;90.10;;;;;;;;;;4401006;32;320764;-89
2023/02/17 07:16:46;;;;;;;161.07;95.60;;;;;;;;;;4411224;32;318724;-89
2023/02/17 07:19:15;;;;;;;137.70;78.90;;;;;;;;;;4401282;32;317946;-91
2023/02/17 07:21:43;;;;;;;130.23;73.83;;;;;;;;;;4412757;32;319764;-90
2023/02/17 07:24:10;;;;;;;140.20;83.03;;;;;;;;;;4398452;32;330822;-90
2023/02/17 07:26:37;;;;;;;156.63;89.87;;;;;;;;;;4408465;32;319291;-90
2023/02/17 07:29:06;;;;;;;147.87;91.00;;;;;;;;;;4398122;32;318647;-92
2023/02/17 07:31:34;;;;;;;145.93;83.70;;;;;;;;;;4411873;32;318206;-92
2023/02/17 07:34:02;;;;;;;143.07;82.53;;;;;;;;;;4392499;32;318529;-90
2023/02/17 07:36:36;;;;;;;125.73;73.77;;;;;;;;;;4407339;32;319280;-90
2023/02/17 07:39:04;;;;;;;128.13;73.37;;;;;;;;;;4396249;32;319388;-91
2023/02/17 07:41:32;;;;;;;122.67;73.13;;;;;;;;;;4406937;32;319440;-91
2023/02/17 07:43:59;;;;;;;120.67;73.67;;;;;;;;;;4396117;32;369460;-91
2023/02/17 07:46:27;;;;;;;119.73;70.93;;;;;;;;;;4405821;32;318571;-91
2023/02/17 07:48:57;;;;;;;115.50;72.73;;;;;;;;;;4408252;32;318560;-91
2023/02/17 07:51:26;;;;;;;129.50;76.10;;;;;;;;;;4398279;32;417452;-91
2023/02/17 07:53:54;;;;;;;133.90;74.30;;;;;;;;;;4407556;32;318843;-91
2023/02/17 07:56:22;;;;;;;115.67;72.03;;;;;;;;;;4393905;32;417033;-92
2023/02/17 07:58:50;;;;;;;114.40;69.57;;;;;;;;;;4408385;32;318801;-92
2023/02/17 08:01:19;;;;;;;112.73;68.53;;;;;;;;;;4398783;32;319350;-92
2023/02/17 08:03:47;;;;;;;118.93;70.10;;;;;;;;;;4407832;32;319423;-91
2023/02/17 08:06:16;;;;;;;110.93;70.80;;;;;;;;;;4398407;32;318384;-91
2023/02/17 08:14:14;;;;;;;96.47;57.43;;;;;;;;;;4399327;32;318514;-92
2023/02/17 08:16:42;;;;;;;114.80;67.70;;;;;;;;;;4408658;32;316187;-91
2023/02/17 08:19:10;;;;;;;108.60;60.87;;;;;;;;;;4421483;27;320351;-78
2023/02/17 08:21:37;;;;;;;89.23;57.57;;;;;;;;;;4385601;32;318733;-81
2023/02/17 08:24:05;;;;;;;94.70;56.93;;;;;;;;;;4374673;32;331745;-79
2023/02/17 08:26:34;;;;;;;87.93;52.77;;;;;;;;;;4388069;32;317824;-82
2023/02/17 08:29:01;;;;;;;95.00;54.57;;;;;;;;;;4377729;32;317946;-82
2023/02/17 08:31:31;;;;;;;98.63;58.87;;;;;;;;;;4388123;32;317503;-81
2023/02/17 08:33:59;;;;;;;87.77;55.00;;;;;;;;;;4376697;32;317842;-81
2023/02/17 08:36:29;;;;;;;91.20;56.47;;;;;;;;;;4386247;32;318201;-81
2023/02/17 08:38:58;;;;;;;102.33;59.53;;;;;;;;;;4375847;32;317949;-82
2023/02/17 08:41:30;;;;;;;94.93;57.90;;;;;;;;;;4376699;32;318731;-83
2023/02/17 08:44:02;;;;;;;97.20;54.63;;;;;;;;;;4353956;32;317819;-81
2023/02/17 08:46:31;;;;;;;77.83;47.80;;;;;;;;;;4386776;32;317994;-82
2023/02/17 08:48:58;;;;;;;79.23;50.07;;;;;;;;;;4375636;32;317942;-82
2023/02/17 08:51:28;;;;;;;102.50;57.57;;;;;;;;;;4386571;32;317987;-83
2023/02/17 08:53:57;;;;;;;82.77;49.17;;;;;;;;;;4376099;32;318842;-81
2023/02/17 08:56:26;;;;;;;81.57;49.53;;;;;;;;;;4386912;32;318300;-83
2023/02/17 08:58:54;;;;;;;78.63;47.10;;;;;;;;;;4385047;32;317797;-80
2023/02/17 09:01:24;;;;;;;75.13;46.37;;;;;;;;;;4374405;32;417275;-81
2023/02/17 09:03:54;;;;;;;78.67;47.07;;;;;;;;;;4386151;32;317847;-81
2023/02/17 09:06:22;;;;;;;91.30;55.57;;;;;;;;;;4374390;32;417300;-81
2023/02/17 09:08:49;;;;;;;109.57;59.90;;;;;;;;;;4387177;32;317983;-83
2023/02/17 09:11:19;;;;;;;70.60;41.20;;;;;;;;;;4375803;32;319131;-82
2023/02/17 09:13:47;;;;;;;72.10;43.30;;;;;;;;;;4386217;32;316887;-81
2023/02/17 09:16:14;;;;;;;81.27;52.57;;;;;;;;;;4376416;32;317958;-82
2023/02/17 09:18:43;;;;;;;75.23;38.60;;;;;;;;;;4386529;32;317764;-81
2023/02/17 09:21:13;;;;;;;49.10;32.93;;;;;;;;;;4375497;32;317976;-81
2023/02/17 09:23:41;;;;;;;46.77;30.37;;;;;;;;;;4388064;32;317957;-82
2023/02/17 09:26:11;;;;;;;55.67;33.70;;;;;;;;;;4377443;32;317735;-79
2023/02/17 09:28:39;;;;;;;64.80;37.53;;;;;;;;;;4386877;32;318130;-81
2023/02/17 09:31:11;;;;;;;79.87;55.10;;;;;;;;;;4376643;32;318032;-82
2023/02/17 09:33:38;;;;;;;55.10;33.80;;;;;;;;;;4386901;32;317754;-81
2023/02/17 09:36:10;;;;;;;48.87;31.07;;;;;;;;;;4375333;32;317684;-88
2023/02/17 09:38:39;;;;;;;47.57;33.80;;;;;;;;;;4386481;32;317789;-80
2023/02/17 09:41:17;;;;;;;56.47;36.87;;;;;;;;;;4362320;32;317998;-85
2023/02/17 09:43:44;;;;;;;50.83;34.57;;;;;;;;;;4379916;32;318454;-84
2023/02/17 09:46:16;;;;;;;46.17;30.87;;;;;;;;;;4376130;32;317858;-85
2023/02/17 09:48:46;;;;;;;45.30;30.67;;;;;;;;;;4372952;32;317879;-84
2023/02/17 09:51:23;;;;;;;46.33;29.60;;;;;;;;;;4368765;32;317899;-81
2023/02/17 09:53:59;;;;;;;49.67;31.77;;;;;;;;;;4387369;32;317779;-82
2023/02/17 09:56:33;;;;;;;54.37;32.90;;;;;;;;;;4373476;32;417310;-82
2023/02/17 09:59:06;;;;;;;55.33;33.10;;;;;;;;;;4376283;32;317947;-82
2023/02/17 10:01:35;;;;;;;47.67;31.00;;;;;;;;;;4385259;32;317958;-83
2023/02/17 10:04:09;;;;;;;51.40;31.50;;;;;;;;;;4375372;32;318120;-87
2023/02/17 10:06:41;;;;;;;53.33;32.87;;;;;;;;;;4385065;32;355640;-86
2023/02/17 10:09:14;;;;;;;48.83;32.13;;;;;;;;;;4376386;32;318547;-81
2023/02/17 10:11:48;;;;;;;51.83;31.77;;;;;;;;;;4386629;32;317526;-81
2023/02/17 10:14:21;;;;;;;54.03;32.40;;;;;;;;;;4376200;32;318554;-88
2023/02/17 10:16:53;;;;;;;55.50;32.27;;;;;;;;;;4386043;32;326959;-82
2023/02/17 10:19:28;;;;;;;61.90;35.67;;;;;;;;;;4373285;32;417292;-87
2023/02/17 10:22:05;;;;;;;53.77;33.77;;;;;;;;;;4376232;32;319013;-84
2023/02/17 10:24:33;;;;;;;53.93;34.60;;;;;;;;;;4384491;32;318978;-81
2023/02/17 10:27:18;;;;;;;63.07;35.63;;;;;;;;;;4376091;32;319076;-85
2023/02/17 10:29:57;;;;;;;51.87;34.63;;;;;;;;;;4386413;32;318748;-82
2023/02/17 10:32:25;;;;;;;52.93;34.20;;;;;;;;;;4371698;32;418137;-81
2023/02/17 10:35:12;;;;;;;53.93;33.67;;;;;;;;;;4385683;32;319346;-81
2023/02/17 10:37:47;;;;;;;52.20;31.07;;;;;;;;;;4373937;32;389313;-83
2023/02/17 10:40:19;;;;;;;55.57;32.93;;;;;;;;;;4376229;32;318726;-81
2023/02/17 10:42:48;;;;;;;57.10;33.70;;;;;;;;;;4386669;32;318914;-80
2023/02/17 10:45:24;;;;;;;54.17;33.80;;;;;;;;;;4374826;32;318708;-82
2023/02/17 10:47:57;;;;;;;55.97;31.93;;;;;;;;;;4383535;32;347179;-82
2023/02/17 10:50:26;;;;;;;69.60;33.43;;;;;;;;;;4371959;32;419058;-82
2023/02/17 10:52:56;;;;;;;57.40;35.37;;;;;;;;;;4385708;32;318775;-81
2023/02/17 10:55:33;;;;;;;53.97;33.30;;;;;;;;;;4373172;32;418325;-81
2023/02/17 10:58:05;;;;;;;61.57;34.00;;;;;;;;;;4373799;32;318870;-84
2023/02/17 11:00:33;;;;;;;59.00;32.83;;;;;;;;;;4385177;32;317579;-82
2023/02/17 11:03:01;;;;;;;53.97;33.87;;;;;;;;;;4374988;32;334785;-81
2023/02/17 11:05:31;;;;;;;52.53;32.90;;;;;;;;;;4385671;32;318747;-83
2023/02/17 11:08:02;;;;;;;42.60;28.43;;;;;;;;;;4374617;32;318983;-82
2023/02/17 11:10:33;;;;;;;50.40;30.50;;;;;;;;;;4396837;32;318342;-81
2023/02/17 11:13:02;;;;;;;53.20;33.97;;;;;;;;;;4387594;32;318648;-88
2023/02/17 11:15:34;;;;;;;41.27;28.17;;;;;;;;;;4401033;32;317269;-82
2023/02/17 11:18:09;;;;;;;39.97;26.30;;;;;;;;;;4384597;32;317631;-80
2023/02/17 11:20:38;;;;;;;38.70;24.27;;;;;;;;;;4384955;32;344481;-81
2023/02/17 11:23:24;;;;;;;42.00;26.57;;;;;;;;;;4374648;32;318799;-81
2023/02/17 11:26:09;;;;;;;47.27;24.53;;;;;;;;;;4385345;32;318891;-81
2023/02/17 11:28:37;;;;;;;46.43;26.83;;;;;;;;;;4372085;32;419114;-83
2023/02/17 11:31:05;;;;;;;42.57;26.27;;;;;;;;;;4375907;32;318876;-87
2023/02/17 11:33:36;;;;;;;43.90;26.80;;;;;;;;;;4385148;32;318875;-81
2023/02/17 11:36:05;;;;;;;34.87;23.53;;;;;;;;;;4373996;32;318802;-83
2023/02/17 11:38:43;;;;;;;58.17;33.57;;;;;;;;;;4384845;32;319076;-85
2023/02/17 11:41:11;;;;;;;44.63;25.53;;;;;;;;;;4372606;32;319313;-82
2023/02/17 11:43:39;;;;;;;46.07;26.03;;;;;;;;;;4385040;32;319288;-84
2023/02/17 11:46:17;;;;;;;144.97;69.03;;;;;;;;;;4374324;32;318989;-82
2023/02/17 11:49:20;;;;;;;60.90;32.27;;;;;;;;;;4383281;32;320263;-82
2023/02/17 11:51:55;;;;;;;32.97;21.87;;;;;;;;;;4356896;32;390058;-85
2023/02/17 11:54:35;;;;;;;38.63;25.30;;;;;;;;;;4371199;32;390185;-83
2023/02/17 11:57:18;;;;;;;30.30;19.95;;;;;;;;;;4375546;32;318668;-83
2023/02/17 11:59:59;;;;;;;26.63;16.93;;;;;;;;;;4386447;32;318991;-82
2023/02/17 12:02:45;;;;;;;34.73;18.93;;;;;;;;;;4375894;32;419282;-85
2023/02/17 12:05:26;;;;;;;78.07;36.33;;;;;;;;;;4377807;32;318874;-82
2023/02/17 12:08:10;;;;;;;33.77;18.93;;;;;;;;;;4388089;32;318740;-88
2023/02/17 12:10:48;;;;;;;51.33;27.73;;;;;;;;;;4375637;32;419481;-82
2023/02/17 12:13:29;;;;;;;24.17;15.20;;;;;;;;;;4377983;32;318700;-84
2023/02/17 12:16:12;;;;;;;29.53;16.00;;;;;;;;;;4378366;32;318958;-82
2023/02/17 12:18:53;;;;;;;23.73;15.83;;;;;;;;;;4387455;32;318770;-83
2023/02/17 12:21:31;;;;;;;28.87;16.73;;;;;;;;;;4376646;32;389652;-82
2023/02/17 12:24:07;;;;;;;105.67;48.70;;;;;;;;;;4377643;32;340292;-82
2023/02/17 12:26:42;;;;;;;154.53;48.67;;;;;;;;;;4387494;32;319894;-82
2023/02/17 12:29:31;;;;;;;125.53;62.13;;;;;;;;;;4377343;32;320051;-85
2023/02/17 12:32:13;;;;;;;22.80;16.47;;;;;;;;;;4378469;32;320209;-82
2023/02/17 12:34:44;;;;;;;50.27;17.83;;;;;;;;;;4387606;32;319312;-82
2023/02/17 12:37:19;;;;;;;25.30;14.90;;;;;;;;;;4363391;32;329365;-81
2023/02/17 12:39:52;;;;;;;23.20;14.33;;;;;;;;;;4388311;32;318896;-82
2023/02/17 12:42:24;;;;;;;22.03;13.50;;;;;;;;;;4375535;32;318724;-83
2023/02/17 12:44:56;;;;;;;19.37;12.40;;;;;;;;;;4388516;32;318907;-83
2023/02/17 12:47:29;;;;;;;17.57;11.63;;;;;;;;;;4374489;32;418262;-80
2023/02/17 12:50:03;;;;;;;18.07;11.70;;;;;;;;;;4375578;32;401534;-82
2023/02/17 12:52:34;;;;;;;31.27;11.93;;;;;;;;;;4385659;32;318870;-79
2023/02/17 12:55:11;;;;;;;22.13;13.03;;;;;;;;;;4375454;32;318798;-81
2023/02/17 12:57:45;;;;;;;21.47;12.37;;;;;;;;;;4388176;32;319079;-81
2023/02/17 13:00:18;;;;;;;24.00;13.43;;;;;;;;;;4376005;32;318693;-83
2023/02/17 13:02:47;;;;;;;33.70;13.33;;;;;;;;;;4387369;32;359125;-79
2023/02/17 13:05:23;;;;;;;18.43;10.47;;;;;;;;;;4377762;32;318666;-79
2023/02/17 13:07:56;;;;;;;23.10;12.13;;;;;;;;;;4387165;32;319252;-83
2023/02/17 13:10:34;;;;;;;27.33;10.57;;;;;;;;;;4374007;32;418043;-82
2023/02/17 13:13:06;;;;;;;19.50;11.00;;;;;;;;;;4375863;32;318930;-80
2023/02/17 13:15:39;;;;;;;16.50;10.30;;;;;;;;;;4385751;32;319209;-81
2023/02/17 13:18:11;;;;;;;14.13;9.00;;;;;;;;;;4377411;32;318844;-81
2023/02/17 13:20:52;;;;;;;21.47;10.47;;;;;;;;;;4387609;32;318016;-80
2023/02/17 13:23:33;;;;;;;40.80;16.23;;;;;;;;;;4377668;32;319292;-82
2023/02/17 13:26:32;;;;;;;13.47;8.77;;;;;;;;;;4377030;32;318995;-80
2023/02/17 13:29:19;;;;;;;14.70;8.33;;;;;;;;;;4314792;33;317952;-81
2023/02/17 13:31:55;;;;;;;9.43;7.13;;;;;;;;;;4381196;32;317961;-80
2023/02/17 13:34:28;;;;;;;17.27;7.80;;;;;;;;;;4373081;32;417446;-80
2023/02/17 13:36:56;;;;;;;17.17;8.80;;;;;;;;;;4377013;32;318024;-82
2023/02/17 13:39:35;;;;;;;20.63;9.33;;;;;;;;;;4386447;32;317732;-81
2023/02/17 13:42:04;;;;;;;38.30;17.33;;;;;;;;;;4376252;32;317991;-81
2023/02/17 13:44:41;;;;;;;20.30;11.53;;;;;;;;;;4375732;32;318767;-81
2023/02/17 13:47:16;;;;;;;19.03;10.93;;;;;;;;;;4367148;32;319255;-81
2023/02/17 13:49:51;;;;;;;22.50;10.37;;;;;;;;;;4385657;32;319510;-81
2023/02/17 13:52:23;;;;;;;27.20;15.23;;;;;;;;;;4376930;32;318798;-80
2023/02/17 13:54:54;;;;;;;22.77;13.20;;;;;;;;;;4386582;32;318737;-81
2023/02/17 13:57:24;;;;;;;17.83;10.33;;;;;;;;;;4374449;32;418146;-82
2023/02/17 13:59:53;;;;;;;16.43;10.53;;;;;;;;;;4386379;32;319005;-82
2023/02/17 14:02:21;;;;;;;15.03;9.50;;;;;;;;;;4373186;32;418103;-82
2023/02/17 14:04:49;;;;;;;24.47;14.20;;;;;;;;;;4387498;32;317781;-81
2023/02/17 14:07:17;;;;;;;13.07;9.23;;;;;;;;;;4375305;32;318886;-79
2023/02/17 14:09:53;;;;;;;12.40;9.07;;;;;;;;;;4387498;32;317744;-79
2023/02/17 14:12:24;;;;;;;14.70;8.90;;;;;;;;;;4373370;32;419826;-81
2023/02/17 14:14:53;;;;;;;11.83;8.10;;;;;;;;;;4387568;32;317790;-80
2023/02/17 14:17:30;;;;;;;13.20;8.57;;;;;;;;;;4374280;32;417370;-80
2023/02/17 14:19:59;;;;;;;11.30;7.43;;;;;;;;;;4376119;32;324123;-81
2023/02/17 14:22:29;;;;;;;14.43;8.80;;;;;;;;;;4386702;32;317643;-81